Flight Track Log - Related Links

Times and Time Zones

All times are in EDT time to prevent confusion due to time zone crossing. See the EJA122 flight status page for this flight to view local times or setup timezone preferences in your user account.

Time Position Orientation Groundspeed Altitude Reporting Facility
EDT Latitude Longitude Course Direction KTS MPH feet Rate Location/Type
Fri 08:31:17 AM 43.6833 -79.6333 360° North 30 35 600  Level Toronto Center
Fri 08:32:17 AM 43.6833 -79.6333 360° North 10 12 600  Level Toronto Center
Fri 08:34:17 AM 43.6833 -79.6333 324° Northwest 10 12 600 875 Level Toronto Center
Fri 08:36:17 AM 43.6333 -79.7000 224° Southwest 190 219 4,100 2,133 Climbing Toronto Center
Fri 08:37:17 AM 43.5833 -79.7000 180° South 230 265 7,000 1,500 Climbing Toronto Center
Fri 08:38:17 AM 43.5167 -79.6333 144° Southeast 280 322 7,100 50 Climbing Toronto Center
Fri 08:39:17 AM 43.4833 -79.5333 115° Southeast 280 322 7,100  Level Toronto Center
Fri 08:40:17 AM 43.5000 -79.4500 75° East 280 322 7,100 1,300 Level Toronto Center
Fri 08:41:17 AM 43.4833 -79.3500 103° East 260 299 9,700 2,500 Climbing Toronto Center
Fri 08:42:17 AM 43.4667 -79.2500 103° East 280 322 12,100 1,900 Climbing Toronto Center
Fri 08:43:17 AM 43.4500 -79.1000 99° East 330 380 13,500 1,450 Climbing Toronto Center
Fri 08:44:17 AM 43.4333 -78.9667 100° East 370 426 15,000 1,550 Climbing Toronto Center
Fri 08:45:17 AM 43.3833 -78.8333 117° Southeast 390 449 16,600 1,403 Climbing Toronto Center
Fri 08:46:21 AM 43.3331 -78.7281 123° Southeast 387 445 17,900 1,113 Climbing Cleveland Center
Fri 08:47:21 AM 43.2642 -78.5933 125° Southeast 408 470 18,900 1,250 Climbing Cleveland Center
Fri 08:48:21 AM 43.1950 -78.4531 124° Southeast 428 493 20,400 1,450 Climbing Cleveland Center
Fri 08:49:21 AM 43.1236 -78.3133 125° Southeast 441 507 21,800 1,450 Climbing Cleveland Center
Fri 08:50:21 AM 43.0519 -78.1683 124° Southeast 453 521 23,300 1,500 Climbing Cleveland Center
Fri 08:51:21 AM 42.9778 -78.0206 124° Southeast 463 533 24,800 1,500 Climbing Cleveland Center
Fri 08:52:21 AM 42.9036 -77.8736 125° Southeast 463 533 26,300 1,100 Climbing Cleveland Center
Fri 08:53:21 AM 42.8375 -77.7206 120° Southeast 463 533 27,000 350 Climbing Cleveland Center
Fri 08:54:21 AM 42.8036 -77.5381 104° East 468 539 27,000  Level Cleveland Center
Fri 08:55:21 AM 42.7708 -77.3333 102° East 480 552 27,000  Level Cleveland Center
Fri 08:56:21 AM 42.7425 -77.1481 102° East 497 572 27,000  Level Cleveland Center
Fri 08:57:28 AM 42.7128 -76.9592 102° East 505 581 27,000  Level Boston Center
Fri 08:58:28 AM 42.6825 -76.7761 103° East 505 581 27,000  Level Boston Center
Fri 08:59:28 AM 42.6433 -76.5928 106° East 505 581 27,000  Level Boston Center
Fri 09:00:28 AM 42.5722 -76.4300 121° Southeast 493 567 27,000  Level Boston Center
Fri 09:01:28 AM 42.4983 -76.2675 122° Southeast 501 577 27,000  Level Boston Center
Fri 09:02:28 AM 42.4244 -76.1081 122° Southeast 501 577 27,000  Level Boston Center
Fri 09:03:28 AM 42.3506 -75.9436 121° Southeast 512 589 27,000 -1,250 Level Boston Center
Fri 09:04:28 AM 42.2725 -75.7681 121° Southeast 512 589 24,500 -2,550 Descending Boston Center
Fri 09:05:28 AM 42.2019 -75.6100 121° Southeast 501 577 21,900 -2,550 Descending Boston Center
Fri 09:06:28 AM 42.1308 -75.4636 123° Southeast 486 559 19,400 -2,000 Descending Boston Center
Fri 09:07:28 AM 42.0794 -75.3522 122° Southeast 465 535 17,900 -1,200 Descending Boston Center
Fri 09:08:28 AM 42.0189 -75.1956 117° Southeast 441 507 17,000 -450 Descending Boston Center
Fri 09:09:28 AM 41.9639 -75.0508 117° Southeast 428 493 17,000 -450 Level Boston Center
Fri 09:10:28 AM 41.8769 -74.9272 133° Southeast 403 464 16,100 -1,650 Descending Boston Center
Fri 09:11:28 AM 41.7889 -74.8625 151° Southeast 409 471 13,700 -2,500 Descending Boston Center
Fri 09:12:28 AM 41.6819 -74.7861 152° Southeast 401 461 11,100 -2,000 Descending Boston Center
Fri 09:13:28 AM 41.6081 -74.7364 153° Southeast 358 412 9,700 -1,450 Descending Boston Center
Fri 09:14:28 AM 41.5253 -74.7056 164° South 294 338 8,200 -1,100 Descending Boston Center
Fri 09:15:28 AM 41.4589 -74.6836 166° South 278 320 7,500 -795 Descending Boston Center
Fri 09:16:59 AM 41.3333 -74.6500 169° South 283 326 6,200 -869 Descending New York TRACON
Fri 09:17:53 AM 41.2667 -74.6333 169° South 277 319 5,400 -850 Descending New York TRACON
Fri 09:18:59 AM 41.1833 -74.6000 163° South 261 300 4,500 -700 Descending New York TRACON
Fri 09:19:53 AM 41.1167 -74.5833 169° South 271 312 4,000 -684 Descending New York TRACON
Fri 09:20:53 AM 41.0500 -74.5500 159° South 256 295 3,200 -500 Descending New York TRACON
Fri 09:21:53 AM 40.9833 -74.5333 169° South 263 303 3,000 -100 Descending New York TRACON
Fri 09:22:53 AM 40.9000 -74.5000 163° South 265 305 3,000  Level New York TRACON
Fri 09:23:47 AM 40.8667 -74.4500 131° Southeast 264 304 3,000  Level New York TRACON
Fri 09:24:47 AM 40.8000 -74.3833 143° Southeast 255 293 3,000 -48 Level New York TRACON
Fri 09:25:53 AM 40.7500 -74.3167 135° Southeast 233 268 2,900 -429 Descending New York TRACON
Fri 09:26:53 AM 40.7500 -74.2500 90° East 201 231 2,100 -650 Descending New York TRACON
Fri 09:27:53 AM 40.7667 -74.1833 72° East 192 221 1,600 -316 Descending New York TRACON
Fri 09:28:47 AM 40.8000 -74.1500 37° Northeast 171 197 1,500 -450 Descending New York TRACON
Fri 09:29:53 AM 40.8167 -74.1000 66° East 119 137 700 -727 Descending New York TRACON
Fri 09:31:00 AM 40.8500 -74.0500 56° Northeast  Level FlightAware Approximate
Fri 09:38:00 AM 40.8501 -74.0608 56° Northeast  Level Estimated
Fri 09:39:00 AM 40.8501 -74.0608 56° Northeast  Level Estimated

Login

Don't have an account? Register now (free) for customized features, flight alerts, and more!